createdAt,value
2024-02-24T15:20:48.728Z,14.4
2024-02-24T15:26:07.906Z,14.38
2024-02-24T15:31:27.393Z,14.39
2024-02-24T15:36:46.306Z,14.39
2024-02-24T15:42:05.765Z,14.4
2024-02-24T15:47:25.841Z,14.39
2024-02-24T15:52:44.100Z,14.42
2024-02-24T15:58:03.279Z,14.41
2024-02-24T16:03:22.241Z,14.41
2024-02-24T16:08:41.038Z,14.4
2024-02-24T16:14:00.189Z,14.39
2024-02-24T16:19:19.033Z,14.39
2024-02-24T16:24:38.209Z,14.38
2024-02-24T16:29:57.842Z,12.98
2024-02-24T16:35:16.822Z,12.93
2024-02-24T16:40:35.824Z,12.88
2024-02-24T16:45:54.986Z,12.86
2024-02-24T16:51:14.483Z,12.84
2024-02-24T16:56:33.926Z,12.82
2024-02-24T17:01:53.073Z,12.82
2024-02-24T17:07:12.005Z,12.8
2024-02-24T17:12:31.167Z,12.8
2024-02-24T17:17:50.544Z,12.79
2024-02-24T17:23:10.366Z,12.78
2024-02-24T17:28:29.305Z,12.78
2024-02-24T17:33:49.159Z,12.77
2024-02-24T17:39:08.777Z,12.77
2024-02-24T17:44:28.666Z,12.76
2024-02-24T17:49:48.213Z,12.76
2024-02-24T17:55:08.240Z,12.75
2024-02-24T18:00:26.619Z,12.75
2024-02-24T18:05:45.371Z,12.75
2024-02-24T18:11:04.404Z,12.74
2024-02-24T18:16:23.485Z,12.74
2024-02-24T18:21:42.467Z,12.74
2024-02-24T18:27:01.626Z,12.73
2024-02-24T18:32:20.945Z,12.73
2024-02-24T18:37:40.451Z,12.73
2024-02-24T18:42:59.884Z,12.72
2024-02-24T18:53:38.228Z,12.72
2024-02-24T18:58:58.197Z,12.72
2024-02-24T19:04:17.467Z,12.72
2024-02-24T19:09:39.043Z,12.72
2024-02-24T19:14:57.720Z,12.71
2024-02-24T19:20:15.232Z,12.71
2024-02-24T19:25:34.322Z,12.71
2024-02-24T19:30:54.094Z,12.7
2024-02-24T19:36:14.494Z,12.7
2024-02-24T19:41:32.529Z,12.7
2024-02-24T19:46:52.080Z,12.7
2024-02-24T19:52:10.596Z,12.69
2024-02-24T19:57:29.568Z,12.69
2024-02-24T20:08:08.123Z,12.69
2024-02-24T20:13:27.443Z,12.69
2024-02-24T20:18:46.337Z,12.68
2024-02-24T20:24:05.719Z,12.68
2024-02-24T20:29:25.024Z,12.68
2024-02-24T20:34:43.825Z,12.67
2024-02-24T20:40:03.567Z,12.68
2024-02-24T20:45:22.474Z,12.67
2024-02-24T20:50:41.509Z,12.67
2024-02-24T20:56:00.801Z,12.67
2024-02-24T21:01:20.659Z,12.66
2024-02-24T21:06:39.372Z,12.67
2024-02-24T21:11:59.017Z,12.67
2024-02-24T21:17:18.171Z,12.67
2024-02-24T21:23:11.310Z,12.67
2024-02-24T21:28:31.115Z,12.66
2024-02-24T21:33:50.224Z,12.66
2024-02-24T21:39:09.174Z,12.66
2024-02-24T21:44:28.309Z,12.66
2024-02-24T21:49:47.151Z,12.65
2024-02-24T21:55:06.845Z,12.65
2024-02-24T22:00:26.107Z,12.66
2024-02-24T22:05:45.252Z,12.65
2024-02-24T22:11:04.812Z,12.64
2024-02-24T22:16:24.174Z,12.65
2024-02-24T22:21:43.871Z,12.65
2024-02-24T22:27:03.247Z,12.64
2024-02-24T22:32:22.461Z,12.64
2024-02-24T22:37:42.112Z,12.64
2024-02-24T22:43:00.334Z,12.64
2024-02-24T22:48:20.130Z,12.64
2024-02-24T22:53:39.355Z,12.64
2024-02-24T22:58:58.713Z,12.63
2024-02-24T23:04:17.676Z,12.63
2024-02-24T23:09:36.866Z,12.62
2024-02-24T23:14:56.372Z,12.63
2024-02-24T23:20:15.628Z,12.63
2024-02-24T23:25:34.518Z,12.62
2024-02-24T23:30:53.367Z,12.62
2024-02-24T23:36:13.210Z,12.62
2024-02-24T23:41:32.235Z,12.62
2024-02-24T23:46:51.522Z,12.62
2024-02-24T23:52:10.921Z,12.61
2024-02-24T23:57:30.728Z,12.61
